This is the latest recevied weather packets stored in our database for station/object M0JUI-1. If no packets are shown the sender has not sent any weather packets the latest 10 day(s).
| Time | Temp. | Humidity | Pressure | Rain* | Wind** | Luminosity | Snow |
|---|---|---|---|---|---|---|---|
| 1787863365 | 17.22° C | 24% | 1007.7 hPa | 1.78 mm | - | 0 W/m² | - |
| 1787863065 | 17.22° C | 25% | 1007.7 hPa | 2.29 mm | - | 0 W/m² | - |
| 1787862764 | 16.67° C | 25% | 1007.6 hPa | 3.3 mm | - | 0 W/m² | - |
| 1787862464 | 17.22° C | 25% | 1007.2 hPa | 6.1 mm | - | 0 W/m² | - |
| 1787862164 | 17.22° C | 25% | 1007 hPa | 8.13 mm | - | 0 W/m² | - |
| 1787861864 | 17.22° C | 25% | 1007.2 hPa | 8.13 mm | - | 0 W/m² | - |
| 1787861564 | 17.22° C | 25% | 1007.2 hPa | 8.13 mm | - | 0 W/m² | - |
| 1787861264 | 17.22° C | 25% | 1007.6 hPa | 7.62 mm | - | 0 W/m² | - |
| 1787860965 | 17.22° C | 25% | 1007.6 hPa | 7.62 mm | - | 0 W/m² | - |
| 1787860664 | 17.22° C | 25% | 1007.6 hPa | 7.62 mm | - | 0 W/m² | - |
| 1787860064 | 17.22° C | 23% | 1007.5 hPa | 7.62 mm | - | 0 W/m² | - |
| 1787859764 | 17.22° C | 22% | 1007.7 hPa | 7.37 mm | - | 0 W/m² | - |
| 1787859464 | 17.22° C | 21% | 1007.8 hPa | 6.86 mm | - | 0 W/m² | - |
| 1787859165 | 17.22° C | 18% | 1007.9 hPa | 5.84 mm | - | 0 W/m² | - |
| 1787858862 | 17.78° C | 11% | 1008.2 hPa | 3.05 mm | - | 0 W/m² | - |
| 1787858565 | 17.78° C | 8% | 1008.1 hPa | 1.02 mm | - | 0 W/m² | - |
| 1787858264 | 17.78° C | 7% | 1007.8 hPa | 0.76 mm | - | 0 W/m² | - |
| 1787857964 | 17.78° C | 5% | 1007.7 hPa | 0.51 mm | - | 0 W/m² | - |
| 1787857665 | 17.78° C | 4% | 1007.4 hPa | 0.51 mm | - | 0 W/m² | - |
| 1787857365 | 18.33° C | 2% | 1007.3 hPa | 0.25 mm | - | 0 W/m² | - |
| 1787857065 | 18.33° C | 1% | 1007.2 hPa | 0 mm | - | 0 W/m² | - |
| 1787856764 | 18.33° C | 1% | 1007.3 hPa | 0 mm | - | 0 W/m² | - |
| 1787856464 | 18.33° C | 1% | 1007.1 hPa | 0 mm | - | 2 W/m² | - |
| 1787856152 | 18.33° C | 1% | 1007.1 hPa | 0 mm | - | 7 W/m² | - |
| 1787855852 | 18.33° C | 1% | 1007 hPa | 0 mm | - | 4 W/m² | - |
* Rain latest hour (hover to see other rain measurements)
** Current wind speed in m/s (hover to see current wind gust speed)